createdAt,value
2023-06-17T00:00:57.331Z,2266.67
2023-06-17T00:03:24.915Z,2266.67
2023-06-17T00:05:52.589Z,2266.67
2023-06-17T00:08:20.572Z,2266.67
2023-06-17T00:10:48.207Z,2266.67
2023-06-17T00:13:17.215Z,2266.67
2023-06-17T00:15:44.959Z,2266.67
2023-06-17T00:18:12.406Z,2266.67
2023-06-17T00:20:39.896Z,2266.67
2023-06-17T00:23:07.332Z,2266.67
2023-06-17T00:25:34.779Z,2266.67
2023-06-17T00:28:02.230Z,2266.67
2023-06-17T00:30:29.693Z,2266.67
2023-06-17T00:32:57.165Z,2266.67
2023-06-17T00:35:24.604Z,2266.67
2023-06-17T00:37:52.010Z,2266.67
2023-06-17T00:40:19.688Z,2266.67
2023-06-17T00:42:47.301Z,1949.43
2023-06-17T00:45:14.740Z,2102.17
2023-06-17T00:47:42.368Z,1891.33
2023-06-17T00:50:10.595Z,1774.80
2023-06-17T00:52:42.596Z,1755.67
2023-06-17T00:55:09.694Z,1861.73
2023-06-17T00:57:38.372Z,1768.03
2023-06-17T01:00:08.168Z,1880.60
2023-06-17T01:02:37.278Z,1753.40
2023-06-17T01:05:05.357Z,2075.63
2023-06-17T01:07:43.547Z,2266.67
2023-06-17T01:10:18.471Z,2189.17
2023-06-17T01:12:47.119Z,2266.67
2023-06-17T01:15:17.226Z,2266.67
2023-06-17T01:17:45.350Z,2086.77
2023-06-17T01:20:13.858Z,2177.10
2023-06-17T01:22:41.673Z,1970.50
2023-06-17T01:25:10.482Z,2083.20
2023-06-17T01:27:37.912Z,1714.93
2023-06-17T01:30:05.546Z,1980.53
2023-06-17T01:32:33.602Z,1944.00
2023-06-17T01:35:11.586Z,1956.83
2023-06-17T01:37:49.530Z,2252.33
2023-06-17T01:40:18.691Z,1675.23
2023-06-17T01:42:47.996Z,1914.00
2023-06-17T01:45:16.614Z,2046.37
2023-06-17T01:47:44.202Z,1645.03
2023-06-17T01:50:11.651Z,1898.43
2023-06-17T01:52:39.263Z,1350.83
2023-06-17T01:55:07.406Z,1396.53
2023-06-17T01:57:34.830Z,1275.87
2023-06-17T02:00:02.210Z,1204.73
2023-06-17T02:02:29.720Z,865.47
2023-06-17T02:04:58.337Z,707.47
2023-06-17T02:07:28.431Z,679.33
2023-06-17T02:09:55.901Z,332.60
2023-06-17T02:12:23.465Z,1754.60
2023-06-17T02:14:50.963Z,1828.70
2023-06-17T02:17:19.287Z,1661.03
2023-06-17T02:19:46.968Z,1254.73
2023-06-17T02:22:14.429Z,1044.70
2023-06-17T02:24:41.939Z,1488.93
2023-06-17T02:27:09.379Z,1733.03
2023-06-17T02:29:36.761Z,1259.77
2023-06-17T02:32:04.678Z,959.57
2023-06-17T02:34:34.129Z,799.27
2023-06-17T02:37:01.574Z,767.37
2023-06-17T02:39:29.018Z,561.53
2023-06-17T02:41:56.463Z,530.73
2023-06-17T02:44:24.369Z,613.50
2023-06-17T02:46:51.876Z,538.93
2023-06-17T02:49:19.466Z,455.50
2023-06-17T02:51:48.562Z,319.47
2023-06-17T02:54:16.017Z,281.10
2023-06-17T02:56:43.477Z,286.77
2023-06-17T02:59:11.369Z,296.20
2023-06-17T03:01:40.413Z,189.97
2023-06-17T03:04:08.757Z,361.67
2023-06-17T03:06:37.065Z,101.77
2023-06-17T03:09:05.069Z,71.27
2023-06-17T03:11:32.470Z,146.47
2023-06-17T03:13:59.913Z,419.23
2023-06-17T03:16:29.199Z,90.63
2023-06-17T03:18:56.860Z,100.37
2023-06-17T03:21:24.599Z,78.40
2023-06-17T03:23:52.745Z,63.00
2023-06-17T03:26:21.441Z,102.60
2023-06-17T03:28:48.850Z,66.13
2023-06-17T03:31:17.955Z,74.40
2023-06-17T03:33:45.478Z,50.90
2023-06-17T03:36:13.273Z,52.87
2023-06-17T03:38:40.758Z,36.33
2023-06-17T03:41:08.286Z,56.77
2023-06-17T03:43:35.726Z,30.90
2023-06-17T03:46:03.419Z,26.00
2023-06-17T03:48:30.833Z,47.63
2023-06-17T03:50:58.276Z,26.37
2023-06-17T03:53:26.838Z,24.53
2023-06-17T03:55:54.273Z,29.53
2023-06-17T03:58:22.053Z,52.30
2023-06-17T04:00:49.507Z,38.03
2023-06-17T04:03:17.028Z,36.70
2023-06-17T04:05:45.516Z,94.10
2023-06-17T04:08:12.928Z,90.27
2023-06-17T04:10:41.567Z,275.40
2023-06-17T04:13:09.512Z,1442.37
2023-06-17T04:15:36.927Z,1158.10
2023-06-17T04:18:04.397Z,691.60
2023-06-17T04:20:33.474Z,143.73
2023-06-17T04:23:00.897Z,257.90
2023-06-17T04:25:28.855Z,1562.00
2023-06-17T04:27:56.996Z,1245.03
2023-06-17T04:30:26.140Z,2264.07
2023-06-17T04:32:55.213Z,2198.77
2023-06-17T04:35:22.692Z,2196.20
2023-06-17T04:37:51.692Z,1978.40
2023-06-17T04:40:19.541Z,2144.53
2023-06-17T04:42:47.257Z,2243.53
2023-06-17T04:45:14.666Z,1463.90
2023-06-17T04:47:42.594Z,1279.37
2023-06-17T04:50:10.053Z,1588.77
2023-06-17T04:52:37.475Z,772.37
2023-06-17T04:55:05.118Z,825.57
2023-06-17T04:57:32.590Z,1137.43
2023-06-17T05:00:00.004Z,1002.60
2023-06-17T05:02:27.471Z,900.80
2023-06-17T05:04:54.979Z,615.67
2023-06-17T05:07:22.494Z,753.50
2023-06-17T05:09:50.371Z,1333.27
2023-06-17T05:12:18.704Z,1063.17
2023-06-17T05:14:46.165Z,1326.60
2023-06-17T05:17:14.199Z,1497.90
2023-06-17T05:19:41.641Z,738.87
2023-06-17T05:22:09.082Z,1287.33
2023-06-17T05:24:36.608Z,689.57
2023-06-17T05:27:04.170Z,801.50
2023-06-17T05:29:31.594Z,1939.20
2023-06-17T05:31:59.083Z,1287.43
2023-06-17T05:34:26.491Z,1629.07
2023-06-17T05:36:53.972Z,2262.93
2023-06-17T05:39:21.679Z,1974.40
2023-06-17T05:41:49.121Z,2136.20
2023-06-17T05:44:16.548Z,2266.67
2023-06-17T05:46:44.002Z,2266.67
2023-06-17T05:49:11.578Z,2266.67
2023-06-17T05:51:38.991Z,2266.67
2023-06-17T05:54:06.437Z,2266.67
2023-06-17T05:56:33.878Z,2266.67
2023-06-17T05:59:01.310Z,2091.70
2023-06-17T06:01:28.802Z,2266.67
2023-06-17T06:03:56.872Z,2132.90
2023-06-17T06:06:24.474Z,1603.63
2023-06-17T06:08:52.478Z,1958.90
2023-06-17T06:11:19.899Z,2266.67
2023-06-17T06:13:47.337Z,2266.67
2023-06-17T06:16:15.227Z,2266.67
2023-06-17T06:18:42.640Z,2188.83
2023-06-17T06:21:11.003Z,2266.67
2023-06-17T06:23:38.509Z,2266.67
2023-06-17T06:26:05.949Z,1886.23
2023-06-17T06:28:33.413Z,1559.20
2023-06-17T06:31:00.911Z,1692.90
2023-06-17T06:33:28.412Z,1746.93
2023-06-17T06:35:55.865Z,1536.93
2023-06-17T06:38:23.335Z,1734.50
2023-06-17T06:40:51.548Z,1887.93
2023-06-17T06:43:18.937Z,1295.00
2023-06-17T06:45:46.405Z,2134.13
2023-06-17T06:48:14.228Z,2266.67
2023-06-17T06:50:41.602Z,2266.67
2023-06-17T06:53:09.053Z,2266.67
2023-06-17T06:55:36.485Z,1486.67
2023-06-17T06:58:03.929Z,2252.33
2023-06-17T07:00:31.369Z,2266.67
2023-06-17T07:02:58.838Z,1731.53
2023-06-17T07:05:26.258Z,1840.70
2023-06-17T07:07:53.706Z,1908.47
2023-06-17T07:10:21.582Z,2266.67
2023-06-17T07:12:49.171Z,2266.67
2023-06-17T07:15:16.647Z,2260.67
2023-06-17T07:17:44.090Z,2266.67
2023-06-17T07:20:11.988Z,2266.67
2023-06-17T07:22:39.425Z,2266.67
2023-06-17T07:25:07.179Z,2266.67
2023-06-17T07:27:34.601Z,2266.67
2023-06-17T07:30:02.485Z,2266.67
2023-06-17T07:32:30.012Z,2266.67
2023-06-17T07:34:58.546Z,2266.67
2023-06-17T07:37:26.073Z,2266.67
2023-06-17T07:39:53.502Z,1994.47
2023-06-17T07:42:21.024Z,2266.67
2023-06-17T07:44:48.467Z,2266.67
2023-06-17T07:47:16.381Z,2198.57
2023-06-17T07:49:45.174Z,2266.67
2023-06-17T07:52:12.655Z,1609.97
2023-06-17T07:54:40.193Z,2266.67
2023-06-17T07:57:07.634Z,2266.67
2023-06-17T07:59:35.091Z,2266.67
2023-06-17T08:02:02.590Z,1797.43
2023-06-17T08:04:30.294Z,2266.67
2023-06-17T08:06:57.734Z,2266.67
2023-06-17T08:09:25.173Z,2266.67
2023-06-17T08:11:52.607Z,2266.67
2023-06-17T08:14:20.127Z,2266.67
2023-06-17T08:16:47.801Z,2200.00
2023-06-17T08:19:15.873Z,2266.67
2023-06-17T08:21:44.930Z,2266.67
2023-06-17T08:24:22.307Z,2266.67
2023-06-17T08:26:50.391Z,2266.67
2023-06-17T08:29:18.041Z,2266.67
2023-06-17T08:31:48.906Z,2266.67
2023-06-17T08:34:16.663Z,2266.67
2023-06-17T08:36:45.116Z,51.30
2023-06-17T08:39:12.550Z,1818.10
2023-06-17T08:41:41.138Z,426.57
2023-06-17T08:44:09.425Z,880.53
2023-06-17T08:46:37.020Z,1717.83
2023-06-17T08:49:04.839Z,2266.67
2023-06-17T08:51:32.262Z,2266.67
2023-06-17T08:54:01.517Z,2266.67
2023-06-17T08:56:28.938Z,2157.30
2023-06-17T08:58:56.793Z,2266.67
2023-06-17T09:01:24.730Z,2265.40
2023-06-17T09:03:53.025Z,2266.67
2023-06-17T09:06:28.305Z,2212.83
2023-06-17T09:08:59.429Z,885.27
2023-06-17T09:11:27.610Z,1876.57
2023-06-17T09:13:55.801Z,189.07
2023-06-17T09:16:26.920Z,361.40
2023-06-17T09:19:00.885Z,12.40
2023-06-17T09:21:28.836Z,1579.20
2023-06-17T09:24:00.462Z,1475.07
2023-06-17T09:26:31.982Z,2266.67
2023-06-17T09:29:04.153Z,2266.67
2023-06-17T09:31:31.913Z,1963.13
2023-06-17T09:33:59.851Z,2266.67
2023-06-17T09:36:27.552Z,1251.30
2023-06-17T09:38:55.003Z,2266.67
2023-06-17T09:41:24.359Z,512.97
2023-06-17T09:43:55.592Z,747.20
2023-06-17T09:46:28.354Z,1277.90
2023-06-17T09:48:55.828Z,2252.33
2023-06-17T09:51:24.293Z,12.73
2023-06-17T09:53:52.188Z,14.03
2023-06-17T09:56:21.259Z,12.20
2023-06-17T09:58:50.249Z,12.80
2023-06-17T10:01:18.759Z,14.57
2023-06-17T10:03:47.624Z,12.53
2023-06-17T10:06:17.487Z,14.10
2023-06-17T10:08:45.268Z,12.80
2023-06-17T10:11:14.552Z,10.93
2023-06-17T10:13:43.445Z,12.40
2023-06-17T10:16:12.215Z,10.90
2023-06-17T10:18:41.395Z,11.70
2023-06-17T10:21:10.630Z,18.87
2023-06-17T10:23:38.601Z,11.07
2023-06-17T10:26:08.887Z,12.70
2023-06-17T10:28:56.114Z,11.97
2023-06-17T10:31:28.265Z,11.60
2023-06-17T10:33:56.497Z,14.53
2023-06-17T10:36:24.591Z,11.77
2023-06-17T10:38:58.645Z,12.63
2023-06-17T10:41:42.808Z,11.93
2023-06-17T10:44:28.526Z,14.20
2023-06-17T10:46:56.892Z,12.50
2023-06-17T10:49:24.370Z,13.00
2023-06-17T10:51:58.502Z,12.53
2023-06-17T10:54:32.106Z,13.20
2023-06-17T10:57:01.398Z,12.03
2023-06-17T10:59:29.582Z,12.00
2023-06-17T11:02:03.440Z,12.80
2023-06-17T11:04:34.188Z,11.13
2023-06-17T11:07:02.099Z,15.93
2023-06-17T11:09:29.892Z,11.60
2023-06-17T11:11:57.863Z,12.03
2023-06-17T11:14:29.084Z,11.50
2023-06-17T11:16:57.333Z,10.43
2023-06-17T11:19:25.232Z,11.37
2023-06-17T11:21:54.120Z,12.23
2023-06-17T11:24:21.634Z,14.67
2023-06-17T11:26:49.828Z,10.93
2023-06-17T11:29:17.220Z,11.10
2023-06-17T11:31:44.718Z,13.77
2023-06-17T11:34:13.229Z,12.80
2023-06-17T11:36:41.279Z,13.07
2023-06-17T11:39:10.463Z,13.97
2023-06-17T11:41:38.549Z,1120.37
2023-06-17T11:44:06.330Z,375.50
2023-06-17T11:46:35.335Z,664.50
2023-06-17T11:49:04.269Z,593.03
2023-06-17T11:51:33.663Z,85.10
2023-06-17T11:54:02.345Z,2266.67
2023-06-17T11:56:29.767Z,286.83
2023-06-17T11:58:57.564Z,818.83
2023-06-17T12:01:26.220Z,410.73
2023-06-17T12:03:55.252Z,780.47
2023-06-17T12:06:23.471Z,401.93
2023-06-17T12:08:58.121Z,265.07
2023-06-17T12:11:27.182Z,575.30
2023-06-17T12:13:58.836Z,671.70
2023-06-17T12:16:28.332Z,93.90
2023-06-17T12:18:56.160Z,251.40
2023-06-17T12:21:23.977Z,102.20
2023-06-17T12:23:53.526Z,726.87
2023-06-17T12:26:21.606Z,86.73
2023-06-17T12:28:49.034Z,140.20
2023-06-17T12:31:16.487Z,161.77
2023-06-17T12:33:44.470Z,27.33
2023-06-17T12:36:12.262Z,261.10
2023-06-17T12:38:40.425Z,625.00
2023-06-17T12:41:08.128Z,11.40
2023-06-17T12:43:36.178Z,169.60
2023-06-17T12:46:03.678Z,231.37
2023-06-17T12:48:31.829Z,1176.47
2023-06-17T12:50:59.263Z,193.13
2023-06-17T12:53:28.391Z,231.43
2023-06-17T12:55:59.477Z,282.33
2023-06-17T12:58:27.372Z,349.87
2023-06-17T13:00:55.153Z,592.07
2023-06-17T13:03:22.696Z,583.50
2023-06-17T13:05:51.031Z,34.27
2023-06-17T13:08:18.737Z,2199.90
2023-06-17T13:10:46.619Z,2266.67
2023-06-17T13:13:14.059Z,2124.83
2023-06-17T13:15:41.762Z,1727.53
2023-06-17T13:18:09.321Z,1474.87
2023-06-17T13:20:36.965Z,259.30
2023-06-17T13:23:05.731Z,938.53
2023-06-17T13:25:33.134Z,2059.17
2023-06-17T13:28:00.714Z,116.33
2023-06-17T13:30:28.138Z,494.30
2023-06-17T13:32:55.603Z,1954.67
2023-06-17T13:35:23.612Z,1065.90
2023-06-17T13:37:51.291Z,733.43
2023-06-17T13:40:18.920Z,1042.40
2023-06-17T13:42:46.463Z,1690.13
2023-06-17T13:45:15.813Z,452.67
2023-06-17T13:47:43.048Z,2202.77
2023-06-17T13:50:10.868Z,1152.97
2023-06-17T13:52:38.294Z,2266.67
2023-06-17T13:55:06.128Z,825.20
2023-06-17T13:57:33.692Z,2266.67
2023-06-17T14:00:01.431Z,207.03
2023-06-17T14:02:29.234Z,719.63
2023-06-17T14:04:56.702Z,755.83
2023-06-17T14:07:24.066Z,404.27
2023-06-17T14:09:51.561Z,2091.60
2023-06-17T14:12:18.921Z,434.40
2023-06-17T14:14:47.329Z,195.63
2023-06-17T14:17:15.096Z,720.30
2023-06-17T14:19:42.535Z,278.37
2023-06-17T14:22:10.009Z,23.97
2023-06-17T14:24:38.398Z,359.40
2023-06-17T14:27:08.438Z,410.20
2023-06-17T14:29:37.667Z,16.50
2023-06-17T14:32:05.172Z,562.80
2023-06-17T14:34:32.593Z,525.80
2023-06-17T14:37:00.526Z,1449.93
2023-06-17T14:39:27.967Z,320.07
2023-06-17T14:41:55.390Z,204.90
2023-06-17T14:44:23.379Z,698.43
2023-06-17T14:46:50.858Z,541.10
2023-06-17T14:49:18.717Z,190.60
2023-06-17T14:51:47.713Z,490.23
2023-06-17T14:54:15.202Z,285.57
2023-06-17T14:56:43.342Z,33.03
2023-06-17T14:59:11.196Z,1988.73
2023-06-17T15:01:39.750Z,219.03
2023-06-17T15:04:07.625Z,173.00
2023-06-17T15:06:35.680Z,916.00
2023-06-17T15:09:09.146Z,161.23
2023-06-17T15:11:36.555Z,11.37
2023-06-17T15:14:03.994Z,10.50
2023-06-17T15:16:31.423Z,2266.67
2023-06-17T15:18:59.196Z,1907.73
2023-06-17T15:21:26.546Z,68.57
2023-06-17T15:23:53.994Z,174.60
2023-06-17T15:26:21.794Z,14.73
2023-06-17T15:28:49.208Z,246.67
2023-06-17T15:31:17.035Z,75.87
2023-06-17T15:33:44.445Z,419.63
2023-06-17T15:36:11.871Z,474.97
2023-06-17T15:38:39.302Z,1299.23
2023-06-17T15:41:06.645Z,44.47
2023-06-17T15:43:34.076Z,271.23
2023-06-17T15:46:01.531Z,232.30
2023-06-17T15:48:30.795Z,668.83
2023-06-17T15:50:58.152Z,316.20
2023-06-17T15:53:25.545Z,13.77
2023-06-17T15:55:52.900Z,618.47
2023-06-17T15:58:20.319Z,423.97
2023-06-17T16:00:47.756Z,104.20
2023-06-17T16:03:19.732Z,20.43
2023-06-17T16:05:47.145Z,84.67
2023-06-17T16:08:14.584Z,2142.87
2023-06-17T16:10:41.936Z,1107.00
2023-06-17T16:13:09.361Z,1094.17
2023-06-17T16:15:36.713Z,1224.67
2023-06-17T16:18:04.172Z,48.70
2023-06-17T16:20:31.568Z,125.37
2023-06-17T16:22:59.366Z,770.47
2023-06-17T16:25:29.665Z,912.47
2023-06-17T16:27:55.872Z,607.97
2023-06-17T16:30:23.685Z,107.80
2023-06-17T16:32:51.123Z,1433.23
2023-06-17T16:35:18.540Z,154.20
2023-06-17T16:37:46.235Z,1456.20
2023-06-17T16:40:13.748Z,1852.60
2023-06-17T16:42:41.173Z,1060.30
2023-06-17T16:45:08.800Z,2224.83
2023-06-17T16:47:36.749Z,2266.67
2023-06-17T16:50:04.307Z,193.57
2023-06-17T16:52:31.776Z,312.43
2023-06-17T16:54:59.208Z,71.13
2023-06-17T16:57:26.639Z,1698.23
2023-06-17T16:59:54.445Z,321.90
2023-06-17T17:02:21.983Z,273.27
2023-06-17T17:04:49.467Z,188.67
2023-06-17T17:07:16.857Z,105.27
2023-06-17T17:09:44.284Z,102.20
2023-06-17T17:12:11.793Z,1538.83
2023-06-17T17:14:40.840Z,147.83
2023-06-17T17:17:09.408Z,2266.67
2023-06-17T17:19:36.840Z,641.03
2023-06-17T17:22:04.327Z,247.87
2023-06-17T17:24:31.792Z,742.83
2023-06-17T17:26:59.235Z,75.70
2023-06-17T17:29:27.228Z,1890.00
2023-06-17T17:31:54.669Z,11.50
2023-06-17T17:34:22.151Z,100.07
2023-06-17T17:36:49.893Z,35.57
2023-06-17T17:39:17.394Z,463.40
2023-06-17T17:41:44.825Z,1184.30
2023-06-17T17:44:12.322Z,50.97
2023-06-17T17:46:39.728Z,2149.27
2023-06-17T17:49:07.288Z,2266.67
2023-06-17T17:51:34.737Z,328.93
2023-06-17T17:54:02.138Z,516.77
2023-06-17T17:56:29.583Z,433.70
2023-06-17T17:58:57.027Z,300.93
2023-06-17T18:01:24.419Z,537.70
2023-06-17T18:03:52.546Z,719.97
2023-06-17T18:06:19.963Z,669.87
2023-06-17T18:08:47.454Z,141.87
2023-06-17T18:11:14.918Z,940.67
2023-06-17T18:13:42.351Z,2266.67
2023-06-17T18:16:09.900Z,2266.67
2023-06-17T18:18:37.512Z,2266.67
2023-06-17T18:21:04.941Z,2266.67
2023-06-17T18:23:32.298Z,2266.67
2023-06-17T18:25:59.776Z,2266.67
2023-06-17T18:28:27.505Z,2266.67
2023-06-17T18:30:54.923Z,2266.67
2023-06-17T18:33:22.421Z,2078.83
2023-06-17T18:35:49.922Z,1649.23
2023-06-17T18:38:17.350Z,387.93
2023-06-17T18:40:46.418Z,119.07
2023-06-17T18:43:13.925Z,74.33
2023-06-17T18:45:41.350Z,1498.80
2023-06-17T18:48:08.831Z,65.33
2023-06-17T18:50:37.308Z,215.97
2023-06-17T18:53:04.789Z,760.83
2023-06-17T18:55:33.773Z,440.43
2023-06-17T18:58:01.205Z,2266.67
2023-06-17T19:00:30.264Z,2082.07
2023-06-17T19:02:58.115Z,194.47
2023-06-17T19:05:25.656Z,2266.67
2023-06-17T19:07:53.143Z,157.50
2023-06-17T19:10:20.841Z,32.23
2023-06-17T19:12:48.402Z,2266.67
2023-06-17T19:15:15.823Z,2266.67
2023-06-17T19:17:43.314Z,193.37
2023-06-17T19:20:11.182Z,549.50
2023-06-17T19:22:39.249Z,139.57
2023-06-17T19:25:07.041Z,2266.67
2023-06-17T19:27:34.818Z,1310.47
2023-06-17T19:30:03.460Z,2200.00
2023-06-17T19:32:31.191Z,2266.67
2023-06-17T19:34:59.774Z,2266.67
2023-06-17T19:37:27.961Z,537.27
2023-06-17T19:39:55.450Z,1137.37
2023-06-17T19:42:22.919Z,987.67
2023-06-17T19:44:51.954Z,122.43
2023-06-17T19:47:19.298Z,18.83
2023-06-17T19:49:47.008Z,97.07
2023-06-17T19:52:14.491Z,1896.37
2023-06-17T19:54:41.998Z,2133.47
2023-06-17T19:57:09.345Z,1441.50
2023-06-17T19:59:36.823Z,2266.67
2023-06-17T20:02:04.296Z,2266.67
2023-06-17T20:04:31.721Z,2174.00
2023-06-17T20:06:59.710Z,2266.67
2023-06-17T20:09:27.212Z,1582.77
2023-06-17T20:11:54.882Z,1653.77
2023-06-17T20:14:22.995Z,2266.67
2023-06-17T20:16:51.696Z,2266.67
2023-06-17T20:19:19.080Z,2266.67
2023-06-17T20:21:46.483Z,2266.67
2023-06-17T20:24:13.899Z,2266.67
2023-06-17T20:26:41.269Z,1378.67
2023-06-17T20:29:08.695Z,2266.67
2023-06-17T20:31:36.192Z,2266.67
2023-06-17T20:34:03.539Z,2266.67
2023-06-17T20:36:31.230Z,1367.00
2023-06-17T20:39:00.335Z,1932.57
2023-06-17T20:41:29.433Z,2266.67
2023-06-17T20:43:56.792Z,2266.67
2023-06-17T20:46:24.256Z,2266.67
2023-06-17T20:48:51.630Z,242.53
2023-06-17T20:51:19.060Z,2266.67
2023-06-17T20:53:46.501Z,2266.67
2023-06-17T20:56:13.946Z,1368.27
2023-06-17T20:58:41.519Z,2208.83
2023-06-17T21:01:09.722Z,2266.67
2023-06-17T21:03:37.118Z,2266.67
2023-06-17T21:06:04.813Z,2266.67
2023-06-17T21:08:32.256Z,2266.67
2023-06-17T21:10:59.687Z,2266.67
2023-06-17T21:13:27.105Z,1996.07
2023-06-17T21:15:54.450Z,906.33
2023-06-17T21:18:23.525Z,2266.67
2023-06-17T21:20:50.894Z,2266.67
2023-06-17T21:23:18.662Z,2266.67
2023-06-17T21:25:46.116Z,2266.67
2023-06-17T21:28:13.785Z,2266.67
2023-06-17T21:30:41.225Z,1760.73
2023-06-17T21:33:08.932Z,2266.67
2023-06-17T21:35:36.357Z,2199.43
2023-06-17T21:38:03.787Z,2266.67
2023-06-17T21:40:31.216Z,2266.67
2023-06-17T21:42:58.723Z,2266.67
2023-06-17T21:45:26.183Z,2266.67
2023-06-17T21:47:54.016Z,2266.67
2023-06-17T21:50:21.572Z,1985.60
2023-06-17T21:52:49.267Z,2266.67
2023-06-17T21:55:16.714Z,2266.67
2023-06-17T21:57:44.203Z,2266.67
2023-06-17T22:00:13.395Z,2266.67
2023-06-17T22:02:41.956Z,459.90
2023-06-17T22:05:09.465Z,1187.53
2023-06-17T22:07:36.894Z,547.90
2023-06-17T22:10:04.757Z,2071.27
2023-06-17T22:12:32.165Z,1700.63
2023-06-17T22:15:01.902Z,165.20
2023-06-17T22:17:28.652Z,126.63
2023-06-17T22:19:56.038Z,116.30
2023-06-17T22:22:23.406Z,205.57
2023-06-17T22:24:50.834Z,503.40
2023-06-17T22:27:18.237Z,374.37
2023-06-17T22:29:45.656Z,185.83
2023-06-17T22:32:13.081Z,540.90
2023-06-17T22:34:40.507Z,170.07
2023-06-17T22:37:07.938Z,145.70
2023-06-17T22:39:35.387Z,185.70
2023-06-17T22:42:02.798Z,332.90
2023-06-17T22:44:30.582Z,61.10
2023-06-17T22:46:57.946Z,1996.17
2023-06-17T22:49:25.393Z,1650.13
2023-06-17T22:51:52.799Z,2150.77
2023-06-17T22:54:20.232Z,2110.20
2023-06-17T22:56:47.859Z,1038.60
2023-06-17T22:59:15.356Z,290.93
2023-06-17T23:01:43.154Z,481.77
2023-06-17T23:04:10.570Z,338.80
2023-06-17T23:06:37.981Z,2266.67
2023-06-17T23:09:06.986Z,2060.73
2023-06-17T23:11:34.387Z,14.23
2023-06-17T23:14:01.751Z,14.10
2023-06-17T23:16:29.244Z,506.23
2023-06-17T23:18:56.685Z,17.17
2023-06-17T23:21:24.679Z,2200.00
2023-06-17T23:23:52.065Z,2266.67
2023-06-17T23:26:20.235Z,2151.67
2023-06-17T23:28:47.677Z,2230.97
2023-06-17T23:31:15.135Z,2266.67
2023-06-17T23:33:42.530Z,2266.67
2023-06-17T23:36:10.246Z,1506.20
2023-06-17T23:38:39.254Z,2191.57
2023-06-17T23:41:06.962Z,1348.97
2023-06-17T23:43:34.326Z,2266.67
2023-06-17T23:46:03.389Z,1776.93
2023-06-17T23:48:31.181Z,2266.67
2023-06-17T23:50:58.713Z,2128.13
2023-06-17T23:53:26.140Z,583.97
2023-06-17T23:55:53.545Z,270.27
2023-06-17T23:58:21.057Z,251.33
